createdAt,value
2024-04-17T00:00:44.672Z,62.73
2024-04-17T00:04:44.841Z,59.12
2024-04-17T00:08:44.821Z,63.82
2024-04-17T00:12:44.927Z,54.96
2024-04-17T00:16:45.124Z,56.68
2024-04-17T00:20:45.129Z,60.45
2024-04-17T00:24:45.240Z,67.29
2024-04-17T00:28:45.418Z,52.35
2024-04-17T00:32:45.620Z,58.04
2024-04-17T00:36:45.622Z,62.06
2024-04-17T00:40:45.760Z,58.24
2024-04-17T00:44:45.816Z,57.36
2024-04-17T00:48:45.938Z,60.26
2024-04-17T00:52:46.074Z,53.53
2024-04-17T00:56:46.169Z,64.31
2024-04-17T01:00:46.333Z,47.82
2024-04-17T01:04:46.469Z,56.19
2024-04-17T01:08:46.495Z,63.91
2024-04-17T01:12:46.656Z,56.3
2024-04-17T01:16:46.778Z,56.59
2024-04-17T01:20:46.913Z,58.88
2024-04-17T01:24:46.986Z,59.72
2024-04-17T01:28:47.142Z,59.95
2024-04-17T01:32:47.356Z,62.49
2024-04-17T01:36:47.338Z,56.01
2024-04-17T01:40:47.522Z,62.06
2024-04-17T01:44:47.534Z,56.59
2024-04-17T01:48:47.633Z,56.97
2024-04-17T01:52:47.762Z,53.18
2024-04-17T01:56:47.872Z,61.18
2024-04-17T02:00:48.011Z,68.46
2024-04-17T02:04:48.192Z,69.14
2024-04-17T02:08:48.198Z,65.88
2024-04-17T02:12:48.376Z,67.86
2024-04-17T02:16:48.555Z,65.75
2024-04-17T02:20:48.582Z,63.32
2024-04-17T02:24:48.698Z,68
2024-04-17T02:28:48.978Z,65.15
2024-04-17T02:32:48.940Z,68.03
2024-04-17T02:36:48.991Z,66.3
2024-04-17T02:40:49.127Z,65.25
2024-04-17T02:44:49.257Z,66.82
2024-04-17T02:48:49.381Z,66.07
2024-04-17T02:52:49.528Z,66.39
2024-04-17T02:56:49.592Z,65.92
2024-04-17T03:00:49.698Z,68.49
2024-04-17T03:04:49.932Z,68.58
2024-04-17T03:08:49.909Z,70.49
2024-04-17T03:12:50.004Z,71.55
2024-04-17T03:16:50.222Z,71.16
2024-04-17T03:20:50.266Z,69.67
2024-04-17T03:24:50.362Z,71.33
2024-04-17T03:28:50.564Z,72.62
2024-04-17T03:32:50.702Z,70.49
2024-04-17T03:36:50.713Z,70.28
2024-04-17T03:40:50.928Z,70.84
2024-04-17T03:44:50.943Z,73.99
2024-04-17T03:48:51.084Z,70.75
2024-04-17T03:52:51.293Z,73.06
2024-04-17T03:56:51.251Z,70.2
2024-04-17T04:00:51.401Z,71.39
2024-04-17T04:04:51.533Z,72.67
2024-04-17T04:08:51.650Z,73.46
2024-04-17T04:12:51.774Z,71.28
2024-04-17T04:16:52.012Z,73.51
2024-04-17T04:20:51.958Z,71.47
2024-04-17T04:24:52.093Z,73.46
2024-04-17T04:28:52.221Z,72.91
2024-04-17T04:32:52.375Z,75.18
2024-04-17T04:36:52.438Z,75.18
2024-04-17T04:40:52.538Z,73.85
2024-04-17T04:44:52.621Z,74.53
2024-04-17T04:48:52.754Z,72.13
2024-04-17T04:52:52.985Z,73.46
2024-04-17T04:56:52.994Z,73.41
2024-04-17T05:00:53.135Z,74.12
2024-04-17T05:04:53.208Z,72.8
2024-04-17T05:08:53.339Z,72.26
2024-04-17T05:12:53.425Z,72.33
2024-04-17T05:16:53.685Z,74.54
2024-04-17T05:20:53.694Z,75
2024-04-17T05:24:53.769Z,73.69
2024-04-17T05:28:54.046Z,73.67
2024-04-17T05:32:54.067Z,73.33
2024-04-17T05:36:54.156Z,74.23
2024-04-17T05:40:54.333Z,74.04
2024-04-17T05:44:54.293Z,72.91
2024-04-17T05:48:54.435Z,76.84
2024-04-17T05:52:54.615Z,75.39
2024-04-17T05:56:54.700Z,78.61
2024-04-17T06:00:54.855Z,74.69
2024-04-17T06:04:54.991Z,75.04
2024-04-17T06:08:55.028Z,76.44
2024-04-17T06:12:55.147Z,75.74
2024-04-17T06:16:55.326Z,73.51
2024-04-17T06:20:55.391Z,73.38
2024-04-17T06:24:55.494Z,74.33
2024-04-17T06:28:55.698Z,73.16
2024-04-17T06:32:55.812Z,74.82
2024-04-17T06:36:55.859Z,76.01
2024-04-17T06:40:56.000Z,72.8
2024-04-17T06:44:56.058Z,73
2024-04-17T06:48:56.165Z,73.86
2024-04-17T06:52:56.301Z,73.85
2024-04-17T06:56:56.408Z,73.79
2024-04-17T07:00:56.578Z,73
2024-04-17T07:04:56.817Z,75.74
2024-04-17T07:08:56.739Z,74.82
2024-04-17T07:12:56.854Z,73.64
2024-04-17T07:16:56.998Z,75.18
2024-04-17T07:20:57.045Z,73.89
2024-04-17T07:24:57.191Z,72.99
2024-04-17T07:28:57.393Z,71.93
2024-04-17T07:32:57.466Z,74.87
2024-04-17T07:36:57.512Z,75.04
2024-04-17T07:40:57.749Z,74.54
2024-04-17T07:44:57.749Z,74.04
2024-04-17T07:48:57.881Z,72.82
2024-04-17T07:52:57.997Z,71.84
2024-04-17T07:56:58.076Z,73.41
2024-04-17T08:00:58.264Z,71.5
2024-04-17T08:04:58.431Z,71.84
2024-04-17T08:08:58.466Z,72.33
2024-04-17T08:12:58.649Z,74.58
2024-04-17T08:16:58.691Z,74.94
2024-04-17T08:20:58.785Z,74.47
2024-04-17T08:24:58.900Z,73.96
2024-04-17T08:28:59.125Z,70.42
2024-04-17T08:32:59.488Z,73.64
2024-04-17T08:36:59.202Z,74.47
2024-04-17T08:40:59.417Z,73.6
2024-04-17T08:44:59.487Z,74.94
2024-04-17T08:48:59.601Z,70.75
2024-04-17T08:52:59.839Z,73.85
2024-04-17T08:56:59.771Z,75.74
2024-04-17T09:00:59.931Z,73.85
2024-04-17T09:05:00.102Z,73.69
2024-04-17T09:09:00.212Z,73.01
2024-04-17T09:13:00.261Z,73.85
2024-04-17T09:17:00.678Z,70.42
2024-04-17T09:21:00.513Z,73.96
2024-04-17T09:25:00.615Z,71.39
2024-04-17T09:29:00.798Z,73.16
2024-04-17T09:33:01.070Z,72.33
2024-04-17T09:37:01.019Z,72.33
2024-04-17T09:41:01.118Z,74.2
2024-04-17T09:45:01.207Z,74.47
2024-04-17T09:49:01.284Z,73.35
2024-04-17T09:53:01.524Z,72.82
2024-04-17T09:57:01.539Z,76.49
2024-04-17T10:01:01.670Z,75.74
2024-04-17T10:05:01.910Z,73
2024-04-17T10:09:01.878Z,72.85
2024-04-17T10:13:01.989Z,73.99
2024-04-17T10:17:07.781Z,74.2
2024-04-17T10:17:21.897Z,74.2
2024-04-17T10:17:30.980Z,74.2
2024-04-17T10:17:40.567Z,74.2
2024-04-17T10:21:02.221Z,73.16
2024-04-17T10:25:02.349Z,73.32
2024-04-17T10:29:02.473Z,75
2024-04-17T10:33:02.674Z,73.67
2024-04-17T10:37:02.752Z,74.54
2024-04-17T10:41:02.941Z,75.57
2024-04-17T10:45:02.908Z,73.52
2024-04-17T10:49:03.026Z,73.13
2024-04-17T10:53:03.174Z,71.31
2024-04-17T10:57:03.334Z,73.31
2024-04-17T11:01:03.422Z,72.67
2024-04-17T11:05:03.523Z,72.33
2024-04-17T11:09:08.586Z,73.06
2024-04-17T11:13:03.687Z,72.67
2024-04-17T11:17:03.973Z,72.58
2024-04-17T11:21:03.918Z,74.56
2024-04-17T11:25:04.041Z,75.06
2024-04-17T11:29:04.160Z,72.8
2024-04-17T11:33:04.453Z,73.85
2024-04-17T11:37:04.351Z,72.67
2024-04-17T11:41:04.667Z,73.35
2024-04-17T11:45:04.615Z,71.93
2024-04-17T11:49:04.681Z,72
2024-04-17T11:53:04.912Z,73.6
2024-04-17T11:57:04.945Z,75.23
2024-04-17T12:01:05.161Z,73.51
2024-04-17T12:05:05.193Z,73.01
2024-04-17T12:09:05.297Z,74.04
2024-04-17T12:13:05.401Z,73.79
2024-04-17T12:17:05.558Z,73.51
2024-04-17T12:21:05.653Z,73.85
2024-04-17T12:25:05.794Z,74.58
2024-04-17T12:29:07.390Z,75.18
2024-04-17T12:33:06.006Z,73.56
2024-04-17T12:37:06.056Z,74.69
2024-04-17T12:41:06.328Z,72.51
2024-04-17T12:45:06.345Z,75.18
2024-04-17T12:49:06.442Z,74.67
2024-04-17T12:53:06.612Z,77.32
2024-04-17T12:57:06.655Z,72.58
2024-04-17T13:01:06.862Z,74.68
2024-04-17T13:05:06.942Z,76.24
2024-04-17T13:09:07.009Z,73.33
2024-04-17T13:13:07.142Z,73.24
2024-04-17T13:17:07.247Z,81.59
2024-04-17T13:21:07.330Z,72.85
2024-04-17T13:25:07.447Z,74.58
2024-04-17T13:29:07.636Z,74.38
2024-04-17T13:33:07.835Z,73.46
2024-04-17T13:37:07.893Z,73.79
2024-04-17T13:41:08.204Z,75.53
2024-04-17T13:45:08.008Z,74.2
2024-04-17T13:49:08.131Z,73.86
2024-04-17T13:53:08.343Z,75.04
2024-04-17T13:57:08.365Z,74.34
2024-04-17T14:01:08.516Z,72.67
2024-04-17T14:05:08.611Z,73.52
2024-04-17T14:09:08.776Z,74.12
2024-04-17T14:13:08.824Z,75.4
2024-04-17T14:17:08.964Z,74.38
2024-04-17T14:21:09.090Z,72.26
2024-04-17T14:25:09.216Z,75.74
2024-04-17T14:29:09.288Z,74.72
2024-04-17T14:33:09.500Z,76.27
2024-04-17T14:37:09.531Z,73.41
2024-04-17T14:41:09.599Z,72.58
2024-04-17T14:45:09.831Z,73.33
2024-04-17T14:49:09.947Z,73.18
2024-04-17T14:53:09.961Z,72.47
2024-04-17T14:57:10.146Z,75.39
2024-04-17T15:01:10.329Z,74.94
2024-04-17T15:05:10.278Z,75.18
2024-04-17T15:09:10.426Z,74.38
2024-04-17T15:13:10.612Z,73
2024-04-17T15:17:10.702Z,75.04
2024-04-17T15:21:10.814Z,75.2
2024-04-17T15:25:10.873Z,73.13
2024-04-17T15:29:11.023Z,73.67
2024-04-17T15:33:11.194Z,72.58
2024-04-17T15:37:11.231Z,71.79
2024-04-17T15:41:11.342Z,72.71
2024-04-17T15:45:11.431Z,71.67
2024-04-17T15:49:11.606Z,77.63
2024-04-17T15:53:11.704Z,73.41
2024-04-17T15:57:11.812Z,73.46
2024-04-17T16:01:12.002Z,72
2024-04-17T16:05:12.046Z,72
2024-04-17T16:09:12.114Z,73.69
2024-04-17T16:13:12.231Z,73.52
2024-04-17T16:17:12.429Z,72.47
2024-04-17T16:21:12.517Z,70.75
2024-04-17T16:25:12.603Z,71.15
2024-04-17T16:29:12.671Z,72.85
2024-04-17T16:33:12.953Z,73.51
2024-04-17T16:37:12.983Z,71.39
2024-04-17T16:41:13.073Z,71.61
2024-04-17T16:45:13.302Z,71.81
2024-04-17T16:49:13.316Z,71.48
2024-04-17T16:53:13.432Z,71.28
2024-04-17T16:57:13.500Z,74.34
2024-04-17T17:01:13.633Z,70.67
2024-04-17T17:05:13.735Z,72.33
2024-04-17T17:09:13.963Z,70.27
2024-04-17T17:13:14.004Z,70.2
2024-04-17T17:17:14.091Z,69.88
2024-04-17T17:21:14.225Z,72.67
2024-04-17T17:25:14.305Z,70.42
2024-04-17T17:29:14.439Z,72.25
2024-04-17T17:33:14.699Z,70.82
2024-04-17T17:37:14.632Z,68.16
2024-04-17T17:41:14.899Z,70.67
2024-04-17T17:45:14.928Z,69
2024-04-17T17:49:15.016Z,70.82
2024-04-17T17:53:15.058Z,70.49
2024-04-17T17:57:15.328Z,69.98
2024-04-17T18:01:19.320Z,68.24
2024-04-17T18:05:15.441Z,69.18
2024-04-17T18:09:15.570Z,71.65
2024-04-17T18:13:15.663Z,72.17
2024-04-17T18:17:15.773Z,68.68
2024-04-17T18:21:15.977Z,69
2024-04-17T18:25:15.995Z,70.96
2024-04-17T18:29:16.119Z,69.81
2024-04-17T18:33:16.411Z,69.56
2024-04-17T18:37:16.319Z,69.26
2024-04-17T18:41:16.458Z,68.49
2024-04-17T18:45:16.565Z,71.07
2024-04-17T18:49:16.722Z,69.94
2024-04-17T18:53:16.820Z,70.16
2024-04-17T18:57:16.993Z,70.75
2024-04-17T19:01:17.040Z,70.1
2024-04-17T19:05:17.137Z,67.86
2024-04-17T19:09:17.306Z,68.08
2024-04-17T19:13:17.395Z,74.32
2024-04-17T19:17:17.605Z,69.46
2024-04-17T19:21:17.696Z,71.9
2024-04-17T19:25:17.737Z,72.33
2024-04-17T19:29:34.012Z,68.29
2024-04-17T19:29:41.418Z,68.29
2024-04-17T19:29:53.667Z,68.29
2024-04-17T19:30:02.216Z,68.29
2024-04-17T19:30:22.195Z,68.29
2024-04-17T19:33:18.012Z,70.16
2024-04-17T19:37:18.125Z,71.48
2024-04-17T19:41:18.130Z,70.33
2024-04-17T19:45:18.276Z,68.49
2024-04-17T19:49:18.450Z,67.45
2024-04-17T19:53:18.565Z,69.33
2024-04-17T19:57:18.645Z,66.71
2024-04-17T20:01:18.959Z,68.17
2024-04-17T20:05:18.910Z,68.67
2024-04-17T20:09:19.105Z,65.83
2024-04-17T20:13:20.582Z,69
2024-04-17T20:17:19.230Z,65.88
2024-04-17T20:21:19.360Z,66.89
2024-04-17T20:25:19.417Z,68.61
2024-04-17T20:29:19.518Z,63.48
2024-04-17T20:33:19.793Z,73.41
2024-04-17T20:37:19.756Z,69.18
2024-04-17T20:41:19.963Z,69.33
2024-04-17T20:45:20.035Z,68.17
2024-04-17T20:49:20.207Z,67.79
2024-04-17T20:53:20.210Z,67.67
2024-04-17T20:57:20.378Z,64.41
2024-04-17T21:01:20.501Z,67.21
2024-04-17T21:05:20.563Z,66.73
2024-04-17T21:09:20.692Z,65.37
2024-04-17T21:13:20.810Z,69.51
2024-04-17T21:17:20.907Z,66.89
2024-04-17T21:21:21.027Z,66.73
2024-04-17T21:25:21.157Z,68.19
2024-04-17T21:29:21.235Z,64.89
2024-04-17T21:33:21.462Z,67.55
2024-04-17T21:37:21.495Z,67.05
2024-04-17T21:41:21.602Z,67.86
2024-04-17T21:45:21.869Z,63.8
2024-04-17T21:49:21.812Z,65.44
2024-04-17T21:53:21.909Z,64.31
2024-04-17T21:57:22.028Z,66.89
2024-04-17T22:01:22.164Z,67.66
2024-04-17T22:05:22.278Z,67.67
2024-04-17T22:09:22.411Z,67.02
2024-04-17T22:13:22.472Z,62.29
2024-04-17T22:17:22.666Z,63.85
2024-04-17T22:21:22.761Z,65.75
2024-04-17T22:25:22.872Z,68.8
2024-04-17T22:29:22.944Z,59.71
2024-04-17T22:33:23.113Z,58.45
2024-04-17T22:37:23.154Z,63.82
2024-04-17T22:41:23.281Z,61.18
2024-04-17T22:45:23.431Z,67.21
2024-04-17T22:49:23.529Z,62.75
2024-04-17T22:53:23.703Z,55.34
2024-04-17T22:57:23.861Z,60.99
2024-04-17T23:01:23.937Z,66.73
2024-04-17T23:05:23.959Z,63.85
2024-04-17T23:09:24.115Z,61.34
2024-04-17T23:13:24.205Z,58.33
2024-04-17T23:17:24.282Z,64.31
2024-04-17T23:21:24.513Z,61.8
2024-04-17T23:25:25.684Z,65.55
2024-04-17T23:29:24.693Z,60
2024-04-17T23:33:24.912Z,53.08
2024-04-17T23:37:24.846Z,63.2
2024-04-17T23:41:24.995Z,59.61
2024-04-17T23:45:25.095Z,58.53
2024-04-17T23:49:25.276Z,59.71
2024-04-17T23:53:25.336Z,66.67
2024-04-17T23:57:25.501Z,58.86
